sensor_id;sensor_type;location;lat;lon;timestamp;pressure;altitude;pressure_sealevel;temperature;humidity
47082;BME280;33066;49.296;14.470;2023-07-02T00:00:27;96101.87;;;25.27;34.52
47082;BME280;33066;49.296;14.470;2023-07-02T00:02:52;96100.30;;;25.24;34.30
47082;BME280;33066;49.296;14.470;2023-07-02T00:05:18;96098.63;;;25.23;34.11
47082;BME280;33066;49.296;14.470;2023-07-02T00:07:43;96094.33;;;25.48;34.20
47082;BME280;33066;49.296;14.470;2023-07-02T00:10:08;96096.58;;;25.22;34.31
47082;BME280;33066;49.296;14.470;2023-07-02T00:12:34;96098.48;;;25.44;34.44
47082;BME280;33066;49.296;14.470;2023-07-02T00:15:00;96098.57;;;25.41;34.23
47082;BME280;33066;49.296;14.470;2023-07-02T00:17:25;96098.30;;;25.45;34.07
47082;BME280;33066;49.296;14.470;2023-07-02T00:19:51;96097.44;;;25.43;34.07
47082;BME280;33066;49.296;14.470;2023-07-02T00:22:16;96095.93;;;25.40;34.48
47082;BME280;33066;49.296;14.470;2023-07-02T00:24:41;96098.77;;;24.89;34.63
47082;BME280;33066;49.296;14.470;2023-07-02T00:27:06;96100.05;;;25.33;34.54
47082;BME280;33066;49.296;14.470;2023-07-02T00:29:31;96104.07;;;25.31;34.81
47082;BME280;33066;49.296;14.470;2023-07-02T00:31:56;96106.68;;;24.85;34.60
47082;BME280;33066;49.296;14.470;2023-07-02T00:34:21;96107.28;;;25.55;34.74
47082;BME280;33066;49.296;14.470;2023-07-02T00:36:46;96107.00;;;25.25;34.66
47082;BME280;33066;49.296;14.470;2023-07-02T00:39:12;96108.63;;;25.16;34.77
47082;BME280;33066;49.296;14.470;2023-07-02T00:41:37;96114.23;;;25.18;34.64
47082;BME280;33066;49.296;14.470;2023-07-02T00:44:02;96121.79;;;24.77;34.90
47082;BME280;33066;49.296;14.470;2023-07-02T00:46:28;96120.81;;;24.61;35.11
47082;BME280;33066;49.296;14.470;2023-07-02T00:48:54;96121.22;;;24.60;34.86
47082;BME280;33066;49.296;14.470;2023-07-02T00:51:19;96117.49;;;24.55;34.40
47082;BME280;33066;49.296;14.470;2023-07-02T00:53:44;96120.54;;;24.47;34.42
47082;BME280;33066;49.296;14.470;2023-07-02T00:56:10;96122.42;;;24.78;34.36
47082;BME280;33066;49.296;14.470;2023-07-02T00:58:40;96119.61;;;24.45;34.27
47082;BME280;33066;49.296;14.470;2023-07-02T01:00:58;96118.35;;;24.71;34.09
47082;BME280;33066;49.296;14.470;2023-07-02T01:03:24;96118.35;;;24.49;34.09
47082;BME280;33066;49.296;14.470;2023-07-02T01:05:48;96118.65;;;24.44;33.95
47082;BME280;33066;49.296;14.470;2023-07-02T01:08:13;96122.16;;;24.71;33.98
47082;BME280;33066;49.296;14.470;2023-07-02T01:10:38;96121.33;;;24.67;33.86
47082;BME280;33066;49.296;14.470;2023-07-02T01:13:08;96122.43;;;24.72;33.84
47082;BME280;33066;49.296;14.470;2023-07-02T01:15:29;96120.51;;;24.76;33.80
47082;BME280;33066;49.296;14.470;2023-07-02T01:17:54;96122.76;;;24.55;33.72
47082;BME280;33066;49.296;14.470;2023-07-02T01:20:19;96121.38;;;24.52;33.72
47082;BME280;33066;49.296;14.470;2023-07-02T01:22:44;96123.59;;;24.53;33.78
47082;BME280;33066;49.296;14.470;2023-07-02T01:25:09;96123.05;;;24.74;33.86
47082;BME280;33066;49.296;14.470;2023-07-02T01:27:34;96122.35;;;24.71;33.83
47082;BME280;33066;49.296;14.470;2023-07-02T01:29:59;96123.85;;;24.47;33.90
47082;BME280;33066;49.296;14.470;2023-07-02T01:32:24;96122.42;;;24.67;33.88
47082;BME280;33066;49.296;14.470;2023-07-02T01:34:49;96117.89;;;24.14;33.91
47082;BME280;33066;49.296;14.470;2023-07-02T01:37:14;96121.99;;;24.28;33.92
47082;BME280;33066;49.296;14.470;2023-07-02T01:39:39;96121.68;;;24.05;34.05
47082;BME280;33066;49.296;14.470;2023-07-02T01:42:09;96124.15;;;24.14;34.30
47082;BME280;33066;49.296;14.470;2023-07-02T01:44:30;96126.03;;;24.17;34.27
47082;BME280;33066;49.296;14.470;2023-07-02T01:46:55;96125.48;;;23.94;34.26
47082;BME280;33066;49.296;14.470;2023-07-02T01:49:19;96128.61;;;24.40;34.29
47082;BME280;33066;49.296;14.470;2023-07-02T01:51:45;96122.56;;;24.42;34.34
47082;BME280;33066;49.296;14.470;2023-07-02T01:54:09;96124.24;;;23.93;34.37
47082;BME280;33066;49.296;14.470;2023-07-02T01:56:34;96122.21;;;24.41;34.40
47082;BME280;33066;49.296;14.470;2023-07-02T01:58:59;96123.35;;;24.24;34.41
47082;BME280;33066;49.296;14.470;2023-07-02T02:01:24;96122.51;;;24.24;34.45
47082;BME280;33066;49.296;14.470;2023-07-02T02:03:51;96122.71;;;24.32;34.52
47082;BME280;33066;49.296;14.470;2023-07-02T02:06:14;96123.67;;;24.62;34.45
47082;BME280;33066;49.296;14.470;2023-07-02T02:08:39;96126.68;;;24.68;34.40
47082;BME280;33066;49.296;14.470;2023-07-02T02:11:04;96130.78;;;24.71;34.39
47082;BME280;33066;49.296;14.470;2023-07-02T02:13:29;96136.65;;;24.48;34.38
47082;BME280;33066;49.296;14.470;2023-07-02T02:15:54;96137.93;;;24.51;34.52
47082;BME280;33066;49.296;14.470;2023-07-02T02:18:19;96137.00;;;24.32;34.47
47082;BME280;33066;49.296;14.470;2023-07-02T02:20:44;96141.34;;;24.56;34.60
47082;BME280;33066;49.296;14.470;2023-07-02T02:23:09;96142.64;;;24.53;34.57
47082;BME280;33066;49.296;14.470;2023-07-02T02:25:34;96139.17;;;24.46;34.71
47082;BME280;33066;49.296;14.470;2023-07-02T02:28:00;96139.30;;;24.58;34.77
47082;BME280;33066;49.296;14.470;2023-07-02T02:30:24;96140.01;;;24.48;34.95
47082;BME280;33066;49.296;14.470;2023-07-02T02:32:49;96142.98;;;24.38;34.97
47082;BME280;33066;49.296;14.470;2023-07-02T02:35:14;96145.43;;;24.38;35.21
47082;BME280;33066;49.296;14.470;2023-07-02T02:37:40;96144.67;;;24.36;35.31
47082;BME280;33066;49.296;14.470;2023-07-02T02:40:06;96139.83;;;24.19;35.53
47082;BME280;33066;49.296;14.470;2023-07-02T02:42:29;96145.43;;;24.27;35.61
47082;BME280;33066;49.296;14.470;2023-07-02T02:44:56;96144.09;;;24.04;35.64
47082;BME280;33066;49.296;14.470;2023-07-02T02:47:19;96144.33;;;24.19;35.78
47082;BME280;33066;49.296;14.470;2023-07-02T02:49:45;96147.28;;;24.22;35.85
47082;BME280;33066;49.296;14.470;2023-07-02T02:52:10;96145.54;;;24.35;35.77
47082;BME280;33066;49.296;14.470;2023-07-02T02:54:35;96148.31;;;24.30;35.83
47082;BME280;33066;49.296;14.470;2023-07-02T02:57:00;96149.72;;;24.32;35.96
47082;BME280;33066;49.296;14.470;2023-07-02T02:59:27;96151.50;;;24.25;36.04
47082;BME280;33066;49.296;14.470;2023-07-02T03:01:50;96150.17;;;24.51;36.00
47082;BME280;33066;49.296;14.470;2023-07-02T03:04:15;96151.74;;;24.23;36.08
47082;BME280;33066;49.296;14.470;2023-07-02T03:06:40;96155.62;;;24.11;36.07
47082;BME280;33066;49.296;14.470;2023-07-02T03:09:06;96160.18;;;24.38;36.09
47082;BME280;33066;49.296;14.470;2023-07-02T03:13:02;96160.90;;;24.54;35.67
47082;BME280;33066;49.296;14.470;2023-07-02T03:15:26;96165.46;;;24.65;35.70
47082;BME280;33066;49.296;14.470;2023-07-02T03:17:51;96167.86;;;24.63;35.94
47082;BME280;33066;49.296;14.470;2023-07-02T03:20:16;96167.82;;;24.43;36.12
47082;BME280;33066;49.296;14.470;2023-07-02T03:22:42;96174.12;;;24.11;36.38
47082;BME280;33066;49.296;14.470;2023-07-02T03:25:08;96171.77;;;24.36;36.26
47082;BME280;33066;49.296;14.470;2023-07-02T03:27:34;96174.59;;;24.38;36.27
47082;BME280;33066;49.296;14.470;2023-07-02T03:30:00;96178.50;;;24.35;36.29
47082;BME280;33066;49.296;14.470;2023-07-02T03:32:25;96183.63;;;24.23;36.41
47082;BME280;33066;49.296;14.470;2023-07-02T03:34:51;96187.63;;;24.28;36.48
47082;BME280;33066;49.296;14.470;2023-07-02T03:37:17;96187.56;;;24.28;36.44
47082;BME280;33066;49.296;14.470;2023-07-02T03:39:42;96186.17;;;23.94;36.51
47082;BME280;33066;49.296;14.470;2023-07-02T03:42:08;96184.17;;;24.31;36.62
47082;BME280;33066;49.296;14.470;2023-07-02T03:44:33;96187.00;;;23.87;36.92
47082;BME280;33066;49.296;14.470;2023-07-02T03:46:58;96185.40;;;23.78;37.11
47082;BME280;33066;49.296;14.470;2023-07-02T03:49:23;96188.63;;;23.68;37.19
47082;BME280;33066;49.296;14.470;2023-07-02T03:51:48;96187.86;;;23.59;37.37
47082;BME280;33066;49.296;14.470;2023-07-02T03:54:13;96192.02;;;23.92;37.29
47082;BME280;33066;49.296;14.470;2023-07-02T03:56:38;96192.27;;;23.72;37.36
47082;BME280;33066;49.296;14.470;2023-07-02T03:59:03;96198.49;;;24.03;37.41
47082;BME280;33066;49.296;14.470;2023-07-02T04:01:28;96204.27;;;23.75;37.62
47082;BME280;33066;49.296;14.470;2023-07-02T04:03:56;96203.07;;;23.71;38.43
47082;BME280;33066;49.296;14.470;2023-07-02T04:06:19;96197.58;;;23.68;38.81
47082;BME280;33066;49.296;14.470;2023-07-02T04:08:45;96205.29;;;23.64;38.95
47082;BME280;33066;49.296;14.470;2023-07-02T04:11:10;96215.78;;;23.82;39.15
47082;BME280;33066;49.296;14.470;2023-07-02T04:13:34;96215.27;;;23.56;39.33
47082;BME280;33066;49.296;14.470;2023-07-02T04:15:59;96219.40;;;23.62;39.54
47082;BME280;33066;49.296;14.470;2023-07-02T04:18:24;96222.65;;;23.89;39.50
47082;BME280;33066;49.296;14.470;2023-07-02T04:20:49;96226.46;;;23.77;39.53
47082;BME280;33066;49.296;14.470;2023-07-02T04:23:14;96224.87;;;23.62;39.65
47082;BME280;33066;49.296;14.470;2023-07-02T04:25:39;96224.54;;;23.29;39.89
47082;BME280;33066;49.296;14.470;2023-07-02T04:28:04;96224.68;;;23.42;39.81
47082;BME280;33066;49.296;14.470;2023-07-02T04:30:29;96221.92;;;23.73;39.70
47082;BME280;33066;49.296;14.470;2023-07-02T04:32:54;96227.32;;;23.69;39.77
47082;BME280;33066;49.296;14.470;2023-07-02T04:35:19;96230.92;;;23.59;39.57
47082;BME280;33066;49.296;14.470;2023-07-02T04:37:44;96235.64;;;23.89;39.61
47082;BME280;33066;49.296;14.470;2023-07-02T04:40:10;96237.33;;;23.54;39.58
47082;BME280;33066;49.296;14.470;2023-07-02T04:42:34;96241.37;;;23.82;39.60
47082;BME280;33066;49.296;14.470;2023-07-02T04:44:59;96239.76;;;23.51;39.71
47082;BME280;33066;49.296;14.470;2023-07-02T04:47:26;96242.52;;;23.49;39.69
47082;BME280;33066;49.296;14.470;2023-07-02T04:49:49;96239.89;;;23.79;39.68
47082;BME280;33066;49.296;14.470;2023-07-02T04:52:14;96240.14;;;23.77;39.73
47082;BME280;33066;49.296;14.470;2023-07-02T04:54:39;96241.61;;;23.66;39.61
47082;BME280;33066;49.296;14.470;2023-07-02T04:57:04;96242.19;;;23.82;39.74
47082;BME280;33066;49.296;14.470;2023-07-02T04:59:29;96243.52;;;23.69;39.66
47082;BME280;33066;49.296;14.470;2023-07-02T05:01:54;96248.79;;;23.75;39.58
47082;BME280;33066;49.296;14.470;2023-07-02T05:04:19;96247.54;;;23.85;39.49
47082;BME280;33066;49.296;14.470;2023-07-02T05:06:44;96242.31;;;23.93;39.25
47082;BME280;33066;49.296;14.470;2023-07-02T05:09:09;96243.38;;;24.02;39.10
47082;BME280;33066;49.296;14.470;2023-07-02T05:11:34;96243.00;;;23.95;38.61
47082;BME280;33066;49.296;14.470;2023-07-02T05:13:59;96244.73;;;24.45;38.58
47082;BME280;33066;49.296;14.470;2023-07-02T05:16:26;96243.23;;;24.31;38.62
47082;BME280;33066;49.296;14.470;2023-07-02T05:18:50;96237.35;;;24.52;38.43
47082;BME280;33066;49.296;14.470;2023-07-02T05:21:18;96233.82;;;24.31;38.38
47082;BME280;33066;49.296;14.470;2023-07-02T05:23:40;96232.86;;;24.42;38.52
47082;BME280;33066;49.296;14.470;2023-07-02T05:26:04;96233.19;;;24.07;38.42
47082;BME280;33066;49.296;14.470;2023-07-02T05:28:29;96232.38;;;24.00;38.45
47082;BME280;33066;49.296;14.470;2023-07-02T05:30:54;96233.46;;;24.25;38.23
47082;BME280;33066;49.296;14.470;2023-07-02T05:33:20;96238.94;;;24.20;37.91
47082;BME280;33066;49.296;14.470;2023-07-02T05:35:45;96234.31;;;24.27;38.05
47082;BME280;33066;49.296;14.470;2023-07-02T05:38:10;96237.75;;;24.22;38.02
47082;BME280;33066;49.296;14.470;2023-07-02T05:40:35;96240.26;;;24.31;37.99
47082;BME280;33066;49.296;14.470;2023-07-02T05:43:00;96235.86;;;24.14;37.84
47082;BME280;33066;49.296;14.470;2023-07-02T05:45:26;96238.34;;;24.19;37.46
47082;BME280;33066;49.296;14.470;2023-07-02T05:47:50;96245.03;;;24.11;37.10
47082;BME280;33066;49.296;14.470;2023-07-02T05:50:16;96229.11;;;24.28;37.04
47082;BME280;33066;49.296;14.470;2023-07-02T05:52:40;96236.50;;;24.00;36.94
47082;BME280;33066;49.296;14.470;2023-07-02T05:55:07;96236.75;;;23.92;36.98
47082;BME280;33066;49.296;14.470;2023-07-02T05:57:30;96240.56;;;24.26;37.04
47082;BME280;33066;49.296;14.470;2023-07-02T05:59:55;96240.61;;;24.11;36.98
47082;BME280;33066;49.296;14.470;2023-07-02T06:02:20;96252.47;;;24.14;36.99
47082;BME280;33066;49.296;14.470;2023-07-02T06:04:46;96255.57;;;23.95;36.92
47082;BME280;33066;49.296;14.470;2023-07-02T06:07:12;96252.15;;;23.85;37.09
47082;BME280;33066;49.296;14.470;2023-07-02T06:09:35;96246.93;;;23.88;36.94
47082;BME280;33066;49.296;14.470;2023-07-02T06:12:00;96256.93;;;23.85;37.31
47082;BME280;33066;49.296;14.470;2023-07-02T06:14:25;96257.00;;;24.05;36.98
47082;BME280;33066;49.296;14.470;2023-07-02T06:16:50;96253.12;;;24.11;36.98
47082;BME280;33066;49.296;14.470;2023-07-02T06:19:15;96259.22;;;23.96;36.70
47082;BME280;33066;49.296;14.470;2023-07-02T06:21:40;96264.13;;;23.95;36.62
47082;BME280;33066;49.296;14.470;2023-07-02T06:24:06;96267.99;;;24.29;36.54
47082;BME280;33066;49.296;14.470;2023-07-02T06:26:31;96260.83;;;24.44;36.38
47082;BME280;33066;49.296;14.470;2023-07-02T06:28:57;96271.68;;;24.38;36.02
47082;BME280;33066;49.296;14.470;2023-07-02T06:31:23;96263.60;;;24.71;36.10
47082;BME280;33066;49.296;14.470;2023-07-02T06:33:48;96256.99;;;24.01;36.06
47082;BME280;33066;49.296;14.470;2023-07-02T06:36:14;96255.20;;;23.91;36.26
47082;BME280;33066;49.296;14.470;2023-07-02T06:38:39;96259.19;;;24.33;35.94
47082;BME280;33066;49.296;14.470;2023-07-02T06:41:05;96258.20;;;24.53;35.95
47082;BME280;33066;49.296;14.470;2023-07-02T06:43:30;96262.18;;;24.70;35.70
47082;BME280;33066;49.296;14.470;2023-07-02T06:45:56;96267.06;;;24.63;35.40
47082;BME280;33066;49.296;14.470;2023-07-02T06:48:22;96273.63;;;24.65;35.09
47082;BME280;33066;49.296;14.470;2023-07-02T06:50:48;96272.08;;;24.71;35.08
47082;BME280;33066;49.296;14.470;2023-07-02T06:53:13;96282.26;;;24.60;34.90
47082;BME280;33066;49.296;14.470;2023-07-02T06:55:39;96266.13;;;24.85;34.42
47082;BME280;33066;49.296;14.470;2023-07-02T06:58:06;96270.49;;;24.81;34.05
47082;BME280;33066;49.296;14.470;2023-07-02T07:00:31;96270.80;;;25.15;34.08
47082;BME280;33066;49.296;14.470;2023-07-02T07:02:56;96269.29;;;24.80;33.86
47082;BME280;33066;49.296;14.470;2023-07-02T07:05:22;96272.78;;;24.88;34.01
47082;BME280;33066;49.296;14.470;2023-07-02T07:07:48;96269.36;;;25.19;34.03
47082;BME280;33066;49.296;14.470;2023-07-02T07:10:14;96270.44;;;25.27;33.90
47082;BME280;33066;49.296;14.470;2023-07-02T07:12:40;96272.65;;;25.12;33.86
47082;BME280;33066;49.296;14.470;2023-07-02T07:15:06;96273.54;;;25.05;34.07
47082;BME280;33066;49.296;14.470;2023-07-02T07:17:31;96279.21;;;25.11;34.27
47082;BME280;33066;49.296;14.470;2023-07-02T07:19:57;96282.69;;;25.00;33.83
47082;BME280;33066;49.296;14.470;2023-07-02T07:22:23;96281.74;;;25.04;34.02
47082;BME280;33066;49.296;14.470;2023-07-02T07:24:49;96285.81;;;25.04;33.43
47082;BME280;33066;49.296;14.470;2023-07-02T07:27:15;96278.82;;;25.12;33.52
47082;BME280;33066;49.296;14.470;2023-07-02T07:29:41;96274.46;;;25.00;33.68
47082;BME280;33066;49.296;14.470;2023-07-02T07:32:08;96279.63;;;24.78;33.57
47082;BME280;33066;49.296;14.470;2023-07-02T07:34:32;96290.14;;;24.94;33.90
47082;BME280;33066;49.296;14.470;2023-07-02T07:36:58;96278.84;;;24.66;34.20
47082;BME280;33066;49.296;14.470;2023-07-02T07:39:24;96288.08;;;25.01;34.40
47082;BME280;33066;49.296;14.470;2023-07-02T07:41:50;96281.18;;;24.66;34.11
47082;BME280;33066;49.296;14.470;2023-07-02T07:44:16;96287.65;;;24.44;34.39
47082;BME280;33066;49.296;14.470;2023-07-02T07:46:41;96291.08;;;24.65;34.46
47082;BME280;33066;49.296;14.470;2023-07-02T07:49:06;96287.97;;;23.97;34.13
47082;BME280;33066;49.296;14.470;2023-07-02T07:51:31;96282.05;;;24.41;34.18
47082;BME280;33066;49.296;14.470;2023-07-02T07:53:56;96284.07;;;24.76;34.10
47082;BME280;33066;49.296;14.470;2023-07-02T07:56:22;96282.19;;;24.74;33.87
47082;BME280;33066;49.296;14.470;2023-07-02T07:58:47;96276.66;;;24.70;33.19
47082;BME280;33066;49.296;14.470;2023-07-02T08:01:13;96293.79;;;24.85;33.41
47082;BME280;33066;49.296;14.470;2023-07-02T08:03:39;96287.68;;;24.41;33.58
47082;BME280;33066;49.296;14.470;2023-07-02T08:06:04;96283.96;;;24.47;33.12
47082;BME280;33066;49.296;14.470;2023-07-02T08:08:30;96288.91;;;24.44;32.66
47082;BME280;33066;49.296;14.470;2023-07-02T08:10:56;96298.40;;;24.72;31.55
47082;BME280;33066;49.296;14.470;2023-07-02T08:13:21;96286.79;;;24.82;31.56
47082;BME280;33066;49.296;14.470;2023-07-02T08:15:47;96288.53;;;25.23;30.87
47082;BME280;33066;49.296;14.470;2023-07-02T08:18:13;96292.55;;;24.72;30.78
47082;BME280;33066;49.296;14.470;2023-07-02T08:20:38;96298.17;;;25.16;31.01
47082;BME280;33066;49.296;14.470;2023-07-02T08:23:04;96297.26;;;25.04;30.83
47082;BME280;33066;49.296;14.470;2023-07-02T08:25:31;96296.24;;;24.77;30.32
47082;BME280;33066;49.296;14.470;2023-07-02T08:27:56;96299.98;;;24.84;29.90
47082;BME280;33066;49.296;14.470;2023-07-02T08:30:22;96303.68;;;24.98;29.57
47082;BME280;33066;49.296;14.470;2023-07-02T08:32:48;96314.77;;;24.59;29.67
47082;BME280;33066;49.296;14.470;2023-07-02T08:35:14;96308.85;;;24.40;29.75
47082;BME280;33066;49.296;14.470;2023-07-02T08:37:39;96314.16;;;24.59;29.95
47082;BME280;33066;49.296;14.470;2023-07-02T08:40:15;96316.33;;;24.76;30.00
47082;BME280;33066;49.296;14.470;2023-07-02T08:42:32;96320.22;;;24.56;29.42
47082;BME280;33066;49.296;14.470;2023-07-02T08:44:59;96320.96;;;24.45;29.64
47082;BME280;33066;49.296;14.470;2023-07-02T08:47:23;96328.39;;;24.79;29.71
47082;BME280;33066;49.296;14.470;2023-07-02T08:49:50;96324.85;;;24.75;29.86
47082;BME280;33066;49.296;14.470;2023-07-02T08:52:16;96322.25;;;25.05;30.01
47082;BME280;33066;49.296;14.470;2023-07-02T08:54:40;96328.05;;;25.40;30.39
47082;BME280;33066;49.296;14.470;2023-07-02T08:57:06;96330.01;;;25.51;30.55
47082;BME280;33066;49.296;14.470;2023-07-02T08:59:31;96323.84;;;25.28;30.83
47082;BME280;33066;49.296;14.470;2023-07-02T09:01:57;96335.62;;;25.52;30.87
47082;BME280;33066;49.296;14.470;2023-07-02T09:04:24;96333.23;;;25.34;29.45
47082;BME280;33066;49.296;14.470;2023-07-02T09:06:50;96332.50;;;25.54;29.92
47082;BME280;33066;49.296;14.470;2023-07-02T09:09:15;96340.29;;;25.76;30.15
47082;BME280;33066;49.296;14.470;2023-07-02T09:11:48;96334.61;;;25.95;30.16
47082;BME280;33066;49.296;14.470;2023-07-02T09:14:06;96341.26;;;25.86;30.26
47082;BME280;33066;49.296;14.470;2023-07-02T09:16:33;96343.39;;;25.86;30.08
47082;BME280;33066;49.296;14.470;2023-07-02T09:19:00;96344.40;;;25.68;30.17
47082;BME280;33066;49.296;14.470;2023-07-02T09:21:26;96334.98;;;25.85;29.72
47082;BME280;33066;49.296;14.470;2023-07-02T09:23:51;96343.92;;;25.74;29.91
47082;BME280;33066;49.296;14.470;2023-07-02T09:26:20;96350.54;;;25.89;29.59
47082;BME280;33066;49.296;14.470;2023-07-02T09:28:41;96344.43;;;26.11;29.06
47082;BME280;33066;49.296;14.470;2023-07-02T09:31:07;96344.16;;;25.84;29.20
47082;BME280;33066;49.296;14.470;2023-07-02T09:33:33;96351.67;;;26.07;28.84
47082;BME280;33066;49.296;14.470;2023-07-02T09:35:59;96356.91;;;25.91;28.33
47082;BME280;33066;49.296;14.470;2023-07-02T09:38:25;96342.89;;;26.01;28.46
47082;BME280;33066;49.296;14.470;2023-07-02T09:40:52;96350.05;;;26.17;28.24
47082;BME280;33066;49.296;14.470;2023-07-02T09:43:17;96354.25;;;26.25;27.90
47082;BME280;33066;49.296;14.470;2023-07-02T09:45:43;96357.43;;;26.26;27.16
47082;BME280;33066;49.296;14.470;2023-07-02T09:48:08;96351.67;;;26.31;27.43
47082;BME280;33066;49.296;14.470;2023-07-02T09:50:34;96362.44;;;26.88;27.17
47082;BME280;33066;49.296;14.470;2023-07-02T09:53:00;96364.23;;;26.66;27.24
47082;BME280;33066;49.296;14.470;2023-07-02T09:55:25;96359.49;;;27.07;26.70
47082;BME280;33066;49.296;14.470;2023-07-02T09:57:51;96360.13;;;27.23;26.79
47082;BME280;33066;49.296;14.470;2023-07-02T10:00:17;96361.01;;;27.03;26.36
47082;BME280;33066;49.296;14.470;2023-07-02T10:02:48;96363.92;;;27.23;26.25
47082;BME280;33066;49.296;14.470;2023-07-02T10:05:08;96367.89;;;27.36;26.36
47082;BME280;33066;49.296;14.470;2023-07-02T10:07:34;96366.52;;;27.46;26.01
47082;BME280;33066;49.296;14.470;2023-07-02T10:10:00;96358.38;;;26.99;25.99
47082;BME280;33066;49.296;14.470;2023-07-02T10:12:27;96363.52;;;26.95;26.33
47082;BME280;33066;49.296;14.470;2023-07-02T10:14:53;96360.02;;;27.13;26.33
47082;BME280;33066;49.296;14.470;2023-07-02T10:17:25;96368.74;;;27.18;25.68
47082;BME280;33066;49.296;14.470;2023-07-02T10:19:50;96360.97;;;26.97;26.23
47082;BME280;33066;49.296;14.470;2023-07-02T10:22:08;96375.28;;;26.87;26.52
47082;BME280;33066;49.296;14.470;2023-07-02T10:24:34;96364.87;;;26.94;26.43
47082;BME280;33066;49.296;14.470;2023-07-02T10:27:01;96362.63;;;27.06;26.12
47082;BME280;33066;49.296;14.470;2023-07-02T10:29:27;96366.95;;;27.06;26.33
47082;BME280;33066;49.296;14.470;2023-07-02T10:31:52;96380.64;;;27.71;25.96
47082;BME280;33066;49.296;14.470;2023-07-02T10:34:29;96371.84;;;27.75;25.90
47082;BME280;33066;49.296;14.470;2023-07-02T10:36:43;96370.60;;;27.52;25.77
47082;BME280;33066;49.296;14.470;2023-07-02T10:39:09;96375.47;;;27.58;25.68
47082;BME280;33066;49.296;14.470;2023-07-02T10:41:34;96373.52;;;27.74;25.63
47082;BME280;33066;49.296;14.470;2023-07-02T10:44:06;96366.72;;;28.32;25.69
47082;BME280;33066;49.296;14.470;2023-07-02T10:46:26;96356.91;;;28.28;25.25
47082;BME280;33066;49.296;14.470;2023-07-02T10:48:53;96354.83;;;28.86;25.05
47082;BME280;33066;49.296;14.470;2023-07-02T10:51:18;96336.60;;;29.34;24.37
47082;BME280;33066;49.296;14.470;2023-07-02T10:53:44;96351.05;;;29.39;23.80
47082;BME280;33066;49.296;14.470;2023-07-02T10:56:15;96348.85;;;29.56;23.58
47082;BME280;33066;49.296;14.470;2023-07-02T10:58:41;96349.46;;;28.81;23.92
47082;BME280;33066;49.296;14.470;2023-07-02T11:01:00;96355.62;;;28.56;24.57
47082;BME280;33066;49.296;14.470;2023-07-02T11:03:27;96352.58;;;27.86;25.05
47082;BME280;33066;49.296;14.470;2023-07-02T11:05:52;96355.16;;;28.44;24.98
47082;BME280;33066;49.296;14.470;2023-07-02T11:08:17;96350.57;;;28.52;24.70
47082;BME280;33066;49.296;14.470;2023-07-02T11:10:43;96348.45;;;28.24;24.50
47082;BME280;33066;49.296;14.470;2023-07-02T11:13:11;96361.57;;;28.57;24.54
47082;BME280;33066;49.296;14.470;2023-07-02T11:15:36;96360.59;;;29.53;24.13
47082;BME280;33066;49.296;14.470;2023-07-02T11:18:09;96353.34;;;29.57;23.59
47082;BME280;33066;49.296;14.470;2023-07-02T11:20:33;96358.91;;;30.03;23.49
47082;BME280;33066;49.296;14.470;2023-07-02T11:22:52;96360.70;;;30.33;22.85
47082;BME280;33066;49.296;14.470;2023-07-02T11:25:19;96353.97;;;29.90;23.08
47082;BME280;33066;49.296;14.470;2023-07-02T11:27:43;96360.37;;;29.45;22.97
47082;BME280;33066;49.296;14.470;2023-07-02T11:30:11;96351.70;;;30.21;22.90
47082;BME280;33066;49.296;14.470;2023-07-02T11:32:47;96354.88;;;30.03;23.23
47082;BME280;33066;49.296;14.470;2023-07-02T11:35:00;96350.26;;;29.38;23.41
47082;BME280;33066;49.296;14.470;2023-07-02T11:37:26;96354.09;;;29.86;22.92
47082;BME280;33066;49.296;14.470;2023-07-02T11:39:51;96353.91;;;30.03;22.64
47082;BME280;33066;49.296;14.470;2023-07-02T11:42:17;96349.47;;;30.46;22.68
47082;BME280;33066;49.296;14.470;2023-07-02T11:44:43;96348.56;;;30.60;22.12
47082;BME280;33066;49.296;14.470;2023-07-02T11:47:09;96348.52;;;30.44;21.53
47082;BME280;33066;49.296;14.470;2023-07-02T11:49:35;96354.13;;;29.96;22.30
47082;BME280;33066;49.296;14.470;2023-07-02T11:52:00;96352.70;;;29.31;22.16
47082;BME280;33066;49.296;14.470;2023-07-02T11:54:26;96357.60;;;28.98;22.65
47082;BME280;33066;49.296;14.470;2023-07-02T11:56:52;96358.97;;;28.80;22.54
47082;BME280;33066;49.296;14.470;2023-07-02T11:59:17;96348.40;;;29.73;22.27
47082;BME280;33066;49.296;14.470;2023-07-02T12:01:43;96347.09;;;30.39;22.03
47082;BME280;33066;49.296;14.470;2023-07-02T12:04:10;96345.97;;;30.75;21.25
47082;BME280;33066;49.296;14.470;2023-07-02T12:06:34;96355.17;;;30.75;19.64
47082;BME280;33066;49.296;14.470;2023-07-02T12:09:00;96364.58;;;31.06;20.05
47082;BME280;33066;49.296;14.470;2023-07-02T12:11:26;96349.07;;;30.39;20.08
47082;BME280;33066;49.296;14.470;2023-07-02T12:13:52;96348.79;;;30.52;20.09
47082;BME280;33066;49.296;14.470;2023-07-02T12:16:17;96349.88;;;30.09;20.54
47082;BME280;33066;49.296;14.470;2023-07-02T12:18:44;96345.96;;;29.88;20.89
47082;BME280;33066;49.296;14.470;2023-07-02T12:21:09;96348.05;;;30.16;21.16
47082;BME280;33066;49.296;14.470;2023-07-02T12:23:34;96349.27;;;29.82;21.08
47082;BME280;33066;49.296;14.470;2023-07-02T12:26:00;96347.52;;;30.40;20.89
47082;BME280;33066;49.296;14.470;2023-07-02T12:28:26;96365.61;;;30.38;20.44
47082;BME280;33066;49.296;14.470;2023-07-02T12:30:51;96359.00;;;29.90;20.78
47082;BME280;33066;49.296;14.470;2023-07-02T12:33:17;96365.37;;;30.54;20.86
47082;BME280;33066;49.296;14.470;2023-07-02T12:35:43;96359.60;;;31.18;20.45
47082;BME280;33066;49.296;14.470;2023-07-02T12:38:08;96355.55;;;31.13;20.58
47082;BME280;33066;49.296;14.470;2023-07-02T12:40:33;96359.47;;;31.80;20.53